createdAt,value
2023-04-06T00:00:46.188Z,-0.42
2023-04-06T00:03:14.436Z,-0.56
2023-04-06T00:05:42.809Z,-0.60
2023-04-06T00:08:13.074Z,-0.69
2023-04-06T00:10:41.692Z,-0.62
2023-04-06T00:13:09.986Z,-0.64
2023-04-06T00:15:38.278Z,-0.71
2023-04-06T00:18:06.875Z,-0.67
2023-04-06T00:20:35.165Z,-0.61
2023-04-06T00:23:03.446Z,-0.64
2023-04-06T00:25:33.416Z,-0.64
2023-04-06T00:28:01.935Z,-0.71
2023-04-06T00:30:30.500Z,-0.78
2023-04-06T00:32:58.868Z,-0.71
2023-04-06T00:35:27.501Z,-0.68
2023-04-06T00:37:55.977Z,-0.75
2023-04-06T00:40:24.248Z,-0.74
2023-04-06T00:42:54.077Z,-0.68
2023-04-06T00:45:22.493Z,-0.76
2023-04-06T00:47:50.926Z,-0.88
2023-04-06T00:50:19.627Z,-0.85
2023-04-06T00:52:47.797Z,-0.74
2023-04-06T00:55:16.140Z,-0.76
2023-04-06T00:57:45.211Z,-0.86
2023-04-06T01:00:17.294Z,-0.84
2023-04-06T01:02:47.849Z,-0.76
2023-04-06T01:05:19.818Z,-0.77
2023-04-06T01:07:52.767Z,-0.79
2023-04-06T01:10:26.115Z,-0.83
2023-04-06T01:12:59.225Z,-0.80
2023-04-06T01:15:46.156Z,-0.91
2023-04-06T01:18:18.598Z,-0.93
2023-04-06T01:20:57.414Z,-1.12
2023-04-06T01:23:29.464Z,-1.20
2023-04-06T01:25:57.910Z,-1.28
2023-04-06T01:28:26.695Z,-1.26
2023-04-06T01:31:06.046Z,-1.30
2023-04-06T01:33:46.505Z,-1.31
2023-04-06T01:36:18.728Z,-1.33
2023-04-06T01:38:53.714Z,-1.34
2023-04-06T01:41:26.506Z,-1.31
2023-04-06T01:43:56.019Z,-1.41
2023-04-06T01:46:28.726Z,-1.34
2023-04-06T01:48:57.392Z,-1.32
2023-04-06T01:51:43.638Z,-1.21
2023-04-06T01:54:16.117Z,-1.26
2023-04-06T01:56:55.383Z,-1.27
2023-04-06T01:59:45.654Z,-1.29
2023-04-06T02:02:28.097Z,-1.31
2023-04-06T02:05:07.657Z,-1.35
2023-04-06T02:07:36.224Z,-1.51
2023-04-06T02:10:06.931Z,-1.63
2023-04-06T02:12:39.300Z,-1.63
2023-04-06T02:15:11.752Z,-1.81
2023-04-06T02:17:40.014Z,-1.86
2023-04-06T02:20:09.247Z,-1.89
2023-04-06T02:22:37.598Z,-1.89
2023-04-06T02:25:07.956Z,-1.91
2023-04-06T02:27:36.592Z,-2.04
2023-04-06T02:30:05.050Z,-2.02
2023-04-06T02:32:33.550Z,-1.96
2023-04-06T02:35:02.437Z,-1.81
2023-04-06T02:37:32.095Z,-1.87
2023-04-06T02:40:01.097Z,-1.82
2023-04-06T02:42:33.426Z,-1.77
2023-04-06T02:45:02.125Z,-1.76
2023-04-06T02:47:35.712Z,-1.72
2023-04-06T02:50:04.139Z,-1.63
2023-04-06T02:52:34.410Z,-1.77
2023-04-06T02:55:02.997Z,-1.64
2023-04-06T02:57:34.150Z,-1.70
2023-04-06T03:00:02.548Z,-1.86
2023-04-06T03:02:38.888Z,-2.01
2023-04-06T03:05:11.426Z,-1.93
2023-04-06T03:07:43.591Z,-2.04
2023-04-06T03:10:19.164Z,-1.86
2023-04-06T03:12:50.828Z,-1.90
2023-04-06T03:15:23.789Z,-1.93
2023-04-06T03:18:00.123Z,-1.87
2023-04-06T03:20:39.938Z,-1.98
2023-04-06T03:23:08.446Z,-1.98
2023-04-06T03:25:41.721Z,-2.11
2023-04-06T03:28:14.305Z,-2.01
2023-04-06T03:30:51.273Z,-2.06
2023-04-06T03:33:28.107Z,-2.15
2023-04-06T03:35:57.394Z,-2.07
2023-04-06T03:38:27.851Z,-2.11
2023-04-06T03:40:56.961Z,-2.25
2023-04-06T03:43:29.867Z,-2.33
2023-04-06T03:45:58.406Z,-2.31
2023-04-06T03:48:26.815Z,-2.36
2023-04-06T03:50:55.062Z,-2.31
2023-04-06T03:53:23.559Z,-2.41
2023-04-06T03:55:55.630Z,-2.54
2023-04-06T03:58:24.216Z,-2.47
2023-04-06T04:00:55.891Z,-2.31
2023-04-06T04:03:24.740Z,-2.33
2023-04-06T04:05:53.228Z,-2.43
2023-04-06T04:08:21.777Z,-2.37
2023-04-06T04:10:50.025Z,-2.36
2023-04-06T04:13:18.362Z,-2.38
2023-04-06T04:15:49.683Z,-2.38
2023-04-06T04:18:19.380Z,-2.42
2023-04-06T04:20:48.603Z,-2.47
2023-04-06T04:23:17.220Z,-2.43
2023-04-06T04:25:46.001Z,-2.53
2023-04-06T04:28:14.771Z,-2.46
2023-04-06T04:30:44.148Z,-2.44
2023-04-06T04:33:13.852Z,-2.55
2023-04-06T04:35:45.080Z,-2.56
2023-04-06T04:38:17.568Z,-2.67
2023-04-06T04:40:50.587Z,-2.71
2023-04-06T04:43:22.284Z,-2.88
2023-04-06T04:45:50.645Z,-2.87
2023-04-06T04:48:38.431Z,-2.85
2023-04-06T04:51:10.180Z,-2.86
2023-04-06T04:54:05.116Z,-2.81
2023-04-06T04:56:34.814Z,-2.78
2023-04-06T04:59:16.448Z,-2.78
2023-04-06T05:01:55.309Z,-2.66
2023-04-06T05:04:30.483Z,-2.53
2023-04-06T05:07:08.330Z,-2.54
2023-04-06T05:09:38.494Z,-2.44
2023-04-06T05:12:07.628Z,-2.36
2023-04-06T05:14:41.969Z,-2.25
2023-04-06T05:17:16.098Z,-2.18
2023-04-06T05:19:44.444Z,-2.05
2023-04-06T05:22:18.625Z,-1.99
2023-04-06T05:24:51.563Z,-1.82
2023-04-06T05:27:19.995Z,-1.68
2023-04-06T05:29:49.178Z,-1.60
2023-04-06T05:32:18.273Z,-1.48
2023-04-06T05:34:47.101Z,-1.32
2023-04-06T05:37:16.980Z,-1.21
2023-04-06T05:39:45.307Z,-1.03
2023-04-06T05:42:13.537Z,-0.89
2023-04-06T05:44:53.420Z,-0.67
2023-04-06T05:47:22.630Z,-0.50
2023-04-06T05:49:57.571Z,-0.32
2023-04-06T05:52:35.884Z,-0.27
2023-04-06T05:55:04.880Z,-0.14
2023-04-06T05:57:34.179Z,0.10
2023-04-06T06:00:03.220Z,0.24
2023-04-06T06:02:41.167Z,0.42
2023-04-06T06:05:12.933Z,0.69
2023-04-06T06:07:44.841Z,0.93
2023-04-06T06:10:13.574Z,1.17
2023-04-06T06:12:41.964Z,1.35
2023-04-06T06:15:10.846Z,1.55
2023-04-06T06:17:44.370Z,1.76
2023-04-06T06:20:13.927Z,1.92
2023-04-06T06:22:42.349Z,2.03
2023-04-06T06:25:17.131Z,2.22
2023-04-06T06:27:47.869Z,2.44
2023-04-06T06:30:20.461Z,2.65
2023-04-06T06:32:52.439Z,2.89
2023-04-06T06:35:21.466Z,2.95
2023-04-06T06:37:50.513Z,3.21
2023-04-06T06:40:25.277Z,3.28
2023-04-06T06:42:55.311Z,3.38
2023-04-06T06:45:31.735Z,3.41
2023-04-06T06:48:00.276Z,3.81
2023-04-06T06:50:29.327Z,4.13
2023-04-06T06:52:57.625Z,4.27
2023-04-06T06:55:27.826Z,4.51
2023-04-06T06:57:56.483Z,4.70
2023-04-06T07:00:25.212Z,4.84
2023-04-06T07:02:54.924Z,5.06
2023-04-06T07:05:27.437Z,5.36
2023-04-06T07:07:58.892Z,5.47
2023-04-06T07:10:29.291Z,5.87
2023-04-06T07:12:57.682Z,6.01
2023-04-06T07:15:25.980Z,6.14
2023-04-06T07:17:55.755Z,6.55
2023-04-06T07:20:24.947Z,7.10
2023-04-06T07:22:53.275Z,7.61
2023-04-06T07:25:24.341Z,9.09
2023-04-06T07:27:55.390Z,9.61
2023-04-06T07:30:26.353Z,10.54
2023-04-06T07:32:56.625Z,12.31
2023-04-06T07:35:27.339Z,13.19
2023-04-06T07:37:56.772Z,13.09
2023-04-06T07:40:27.399Z,13.92
2023-04-06T07:42:58.492Z,14.32
2023-04-06T07:45:27.658Z,14.91
2023-04-06T07:47:56.883Z,15.99
2023-04-06T07:50:27.241Z,15.65
2023-04-06T07:52:56.483Z,16.15
2023-04-06T07:55:25.042Z,16.68
2023-04-06T07:57:53.505Z,16.60
2023-04-06T08:00:24.179Z,16.63
2023-04-06T08:02:52.727Z,17.68
2023-04-06T08:05:21.878Z,16.34
2023-04-06T08:07:50.753Z,16.02
2023-04-06T08:10:19.611Z,16.67
2023-04-06T08:12:48.652Z,17.13
2023-04-06T08:15:19.285Z,17.66
2023-04-06T08:17:49.083Z,17.33
2023-04-06T08:20:17.483Z,17.75
2023-04-06T08:22:46.123Z,18.55
2023-04-06T08:25:14.490Z,17.86
2023-04-06T08:27:42.970Z,18.94
2023-04-06T08:30:16.475Z,20.02
2023-04-06T08:32:45.172Z,20.09
2023-04-06T08:35:14.899Z,19.61
2023-04-06T08:37:43.325Z,21.94
2023-04-06T08:40:13.182Z,21.97
2023-04-06T08:42:43.347Z,21.00
2023-04-06T08:45:12.615Z,19.97
2023-04-06T08:47:42.020Z,20.24
2023-04-06T08:50:12.370Z,20.10
2023-04-06T08:52:44.712Z,19.72
2023-04-06T08:55:13.025Z,19.64
2023-04-06T08:57:42.415Z,19.50
2023-04-06T09:00:13.225Z,19.43
2023-04-06T09:02:42.505Z,20.81
2023-04-06T09:05:11.860Z,20.24
2023-04-06T09:07:42.023Z,20.63
2023-04-06T09:10:11.142Z,20.04
2023-04-06T09:12:39.492Z,20.19
2023-04-06T09:15:08.961Z,20.31
2023-04-06T09:17:37.903Z,20.85
2023-04-06T09:20:07.032Z,20.36
2023-04-06T09:22:39.217Z,20.65
2023-04-06T09:25:10.986Z,20.83
2023-04-06T09:27:40.072Z,21.52
2023-04-06T09:30:11.243Z,21.70
2023-04-06T09:32:51.038Z,21.04
2023-04-06T09:35:21.219Z,20.71
2023-04-06T09:37:50.160Z,20.48
2023-04-06T09:40:20.543Z,21.56
2023-04-06T09:42:51.233Z,21.62
2023-04-06T09:45:19.755Z,21.41
2023-04-06T09:47:48.554Z,21.03
2023-04-06T09:50:17.511Z,20.79
2023-04-06T09:52:50.653Z,21.18
2023-04-06T09:55:26.507Z,20.13
2023-04-06T09:58:00.482Z,20.01
2023-04-06T10:00:30.775Z,21.04
2023-04-06T10:03:10.043Z,21.15
2023-04-06T10:05:44.558Z,21.91
2023-04-06T10:08:14.203Z,21.43
2023-04-06T10:10:44.955Z,20.74
2023-04-06T10:13:14.163Z,21.52
2023-04-06T10:15:43.239Z,21.57
2023-04-06T10:18:11.574Z,21.37
2023-04-06T10:20:44.460Z,20.91
2023-04-06T10:23:17.161Z,21.59
2023-04-06T10:25:56.696Z,22.00
2023-04-06T10:28:26.013Z,21.16
2023-04-06T10:31:00.626Z,21.13
2023-04-06T10:33:29.257Z,20.81
2023-04-06T10:35:57.843Z,21.51
2023-04-06T10:38:39.696Z,22.36
2023-04-06T10:41:12.503Z,23.05
2023-04-06T10:43:42.555Z,22.69
2023-04-06T10:46:12.771Z,22.95
2023-04-06T10:48:42.212Z,23.59
2023-04-06T10:51:12.044Z,23.72
2023-04-06T10:53:40.491Z,23.28
2023-04-06T10:56:14.023Z,23.00
2023-04-06T10:58:47.690Z,23.71
2023-04-06T11:01:17.422Z,22.80
2023-04-06T11:03:47.274Z,22.78
2023-04-06T11:06:21.653Z,21.66
2023-04-06T11:08:51.250Z,22.33
2023-04-06T11:11:22.456Z,22.33
2023-04-06T11:13:53.615Z,22.71
2023-04-06T11:16:23.545Z,23.01
2023-04-06T11:18:53.750Z,23.32
2023-04-06T11:21:23.166Z,23.46
2023-04-06T11:23:51.390Z,22.99
2023-04-06T11:26:21.507Z,22.48
2023-04-06T11:28:50.171Z,23.64
2023-04-06T11:31:21.167Z,22.68
2023-04-06T11:33:49.480Z,22.86
2023-04-06T11:36:17.802Z,24.60
2023-04-06T11:38:46.065Z,24.70
2023-04-06T11:41:14.616Z,22.92
2023-04-06T11:43:50.039Z,24.12
2023-04-06T11:46:20.669Z,22.98
2023-04-06T11:48:49.179Z,23.32
2023-04-06T11:51:25.104Z,23.98
2023-04-06T11:53:53.403Z,24.27
2023-04-06T11:56:28.912Z,25.68
2023-04-06T11:58:59.710Z,26.02
2023-04-06T12:01:29.090Z,25.53
2023-04-06T12:03:58.060Z,23.93
2023-04-06T12:06:27.278Z,25.97
2023-04-06T12:08:55.897Z,26.67
2023-04-06T12:11:24.336Z,26.63
2023-04-06T12:13:52.642Z,25.71
2023-04-06T12:16:22.302Z,25.67
2023-04-06T12:18:50.741Z,24.62
2023-04-06T12:21:19.132Z,24.19
2023-04-06T12:23:47.463Z,22.60
2023-04-06T12:26:15.966Z,24.02
2023-04-06T12:28:45.814Z,24.64
2023-04-06T12:31:18.209Z,25.20
2023-04-06T12:33:49.779Z,24.24
2023-04-06T12:36:20.147Z,25.63
2023-04-06T12:38:50.217Z,24.97
2023-04-06T12:41:18.980Z,24.63
2023-04-06T12:43:47.447Z,24.45
2023-04-06T12:46:15.836Z,24.20
2023-04-06T12:48:44.118Z,23.77
2023-04-06T12:51:13.966Z,24.30
2023-04-06T12:53:42.431Z,24.64
2023-04-06T12:56:15.775Z,24.48
2023-04-06T12:58:44.132Z,24.25
2023-04-06T13:01:14.123Z,24.74
2023-04-06T13:03:43.154Z,24.90
2023-04-06T13:06:11.727Z,26.94
2023-04-06T13:08:43.062Z,25.35
2023-04-06T13:11:11.815Z,24.95
2023-04-06T13:13:40.257Z,24.80
2023-04-06T13:16:10.658Z,25.64
2023-04-06T13:18:40.202Z,25.28
2023-04-06T13:21:09.220Z,24.60
2023-04-06T13:23:37.529Z,24.50
2023-04-06T13:26:08.773Z,24.19
2023-04-06T13:28:40.131Z,24.46
2023-04-06T13:31:09.334Z,24.34
2023-04-06T13:33:38.141Z,25.43
2023-04-06T13:36:08.509Z,24.09
2023-04-06T13:38:36.984Z,25.26
2023-04-06T13:41:06.700Z,24.01
2023-04-06T13:43:34.822Z,24.05
2023-04-06T13:46:03.053Z,23.45
2023-04-06T13:48:31.725Z,24.96
2023-04-06T13:51:00.201Z,24.02
2023-04-06T13:53:28.441Z,24.60
2023-04-06T13:55:56.856Z,23.41
2023-04-06T13:58:26.946Z,23.62
2023-04-06T14:00:55.306Z,23.19
2023-04-06T14:03:25.408Z,22.68
2023-04-06T14:05:53.998Z,22.68
2023-04-06T14:08:23.003Z,22.66
2023-04-06T14:10:51.284Z,22.74
2023-04-06T14:13:20.206Z,22.26
2023-04-06T14:15:54.590Z,20.58
2023-04-06T14:18:23.324Z,21.12
2023-04-06T14:20:56.945Z,20.86
2023-04-06T14:23:27.029Z,20.01
2023-04-06T14:26:04.621Z,18.60
2023-04-06T14:28:33.589Z,18.28
2023-04-06T14:31:04.198Z,17.01
2023-04-06T14:33:32.604Z,16.83
2023-04-06T14:36:00.762Z,16.77
2023-04-06T14:38:28.974Z,16.53
2023-04-06T14:40:57.289Z,16.62
2023-04-06T14:43:25.987Z,16.44
2023-04-06T14:45:54.370Z,16.48
2023-04-06T14:48:24.081Z,16.06
2023-04-06T14:50:56.048Z,16.17
2023-04-06T14:53:24.223Z,16.10
2023-04-06T14:55:53.670Z,16.20
2023-04-06T14:58:22.820Z,16.13
2023-04-06T15:00:51.292Z,15.83
2023-04-06T15:03:19.602Z,15.56
2023-04-06T15:05:49.569Z,15.46
2023-04-06T15:08:18.329Z,15.45
2023-04-06T15:10:46.590Z,14.95
2023-04-06T15:13:14.918Z,14.63
2023-04-06T15:15:43.262Z,14.76
2023-04-06T15:18:11.518Z,14.59
2023-04-06T15:20:39.929Z,14.56
2023-04-06T15:23:09.637Z,14.62
2023-04-06T15:25:37.830Z,14.52
2023-04-06T15:28:06.083Z,14.49
2023-04-06T15:30:34.464Z,14.25
2023-04-06T15:33:04.720Z,14.33
2023-04-06T15:35:34.701Z,14.31
2023-04-06T15:38:03.300Z,14.34
2023-04-06T15:40:32.914Z,14.45
2023-04-06T15:43:01.121Z,14.33
2023-04-06T15:45:29.364Z,14.08
2023-04-06T15:47:57.745Z,13.78
2023-04-06T15:50:26.069Z,13.62
2023-04-06T15:52:54.293Z,13.46
2023-04-06T15:55:22.490Z,13.55
2023-04-06T15:57:52.898Z,13.67
2023-04-06T16:00:21.825Z,13.59
2023-04-06T16:02:50.355Z,13.38
2023-04-06T16:05:18.783Z,13.33
2023-04-06T16:07:46.911Z,13.17
2023-04-06T16:10:15.156Z,12.92
2023-04-06T16:12:44.036Z,12.89
2023-04-06T16:15:14.103Z,12.56
2023-04-06T16:17:43.729Z,12.31
2023-04-06T16:20:13.054Z,12.42
2023-04-06T16:22:42.093Z,12.42
2023-04-06T16:25:11.556Z,12.41
2023-04-06T16:27:39.704Z,12.30
2023-04-06T16:30:09.182Z,12.07
2023-04-06T16:32:39.129Z,12.18
2023-04-06T16:35:08.250Z,12.07
2023-04-06T16:37:36.366Z,11.76
2023-04-06T16:40:04.994Z,11.73
2023-04-06T16:42:33.191Z,11.58
2023-04-06T16:45:01.441Z,11.54
2023-04-06T16:47:29.689Z,11.43
2023-04-06T16:50:05.829Z,11.35
2023-04-06T16:52:34.861Z,11.39
2023-04-06T16:55:03.114Z,11.13
2023-04-06T16:57:31.326Z,11.04
2023-04-06T16:59:59.807Z,10.94
2023-04-06T17:02:28.113Z,10.82
2023-04-06T17:04:56.290Z,10.69
2023-04-06T17:07:32.347Z,10.26
2023-04-06T17:10:01.747Z,9.96
2023-04-06T17:12:29.910Z,9.91
2023-04-06T17:14:58.946Z,9.96
2023-04-06T17:17:27.159Z,9.97
2023-04-06T17:19:55.314Z,9.90
2023-04-06T17:22:23.529Z,9.91
2023-04-06T17:24:53.333Z,9.83
2023-04-06T17:27:23.585Z,9.80
2023-04-06T17:29:51.914Z,9.73
2023-04-06T17:32:21.993Z,9.54
2023-04-06T17:34:50.230Z,9.48
2023-04-06T17:37:18.419Z,9.44
2023-04-06T17:39:46.844Z,9.40
2023-04-06T17:42:16.458Z,9.32
2023-04-06T17:44:44.799Z,9.27
2023-04-06T17:47:13.084Z,9.10
2023-04-06T17:49:41.360Z,9.04
2023-04-06T17:52:09.850Z,8.90
2023-04-06T17:54:38.294Z,8.81
2023-04-06T17:57:07.888Z,8.78
2023-04-06T17:59:37.624Z,8.65
2023-04-06T18:02:07.286Z,8.59
2023-04-06T18:04:35.629Z,8.50
2023-04-06T18:07:03.797Z,8.42
2023-04-06T18:09:32.323Z,8.32
2023-04-06T18:12:01.397Z,8.27
2023-04-06T18:14:29.694Z,8.15
2023-04-06T18:16:59.541Z,8.11
2023-04-06T18:19:28.981Z,8.07
2023-04-06T18:21:57.202Z,8.01
2023-04-06T18:24:40.613Z,7.95
2023-04-06T18:27:11.052Z,7.89
2023-04-06T18:29:39.306Z,7.83
2023-04-06T18:32:09.067Z,7.78
2023-04-06T18:34:37.358Z,7.69
2023-04-06T18:37:05.995Z,7.65
2023-04-06T18:39:34.333Z,7.55
2023-04-06T18:42:03.119Z,7.33
2023-04-06T18:44:32.437Z,7.30
2023-04-06T18:47:01.246Z,7.21
2023-04-06T18:49:31.307Z,7.13
2023-04-06T18:51:59.616Z,7.01
2023-04-06T18:54:28.241Z,6.93
2023-04-06T18:56:56.998Z,6.88
2023-04-06T18:59:31.857Z,6.71
2023-04-06T19:02:00.526Z,6.59
2023-04-06T19:04:31.261Z,6.48
2023-04-06T19:07:00.975Z,6.39
2023-04-06T19:09:29.562Z,6.34
2023-04-06T19:11:57.942Z,6.17
2023-04-06T19:14:26.433Z,6.11
2023-04-06T19:16:55.088Z,6.02
2023-04-06T19:19:23.747Z,5.96
2023-04-06T19:21:53.677Z,5.88
2023-04-06T19:24:21.884Z,5.83
2023-04-06T19:26:50.186Z,5.81
2023-04-06T19:29:18.603Z,5.70
2023-04-06T19:31:47.164Z,5.60
2023-04-06T19:34:17.885Z,5.55
2023-04-06T19:36:46.643Z,5.44
2023-04-06T19:39:17.042Z,5.37
2023-04-06T19:41:45.526Z,5.25
2023-04-06T19:44:13.748Z,5.20
2023-04-06T19:46:42.737Z,5.12
2023-04-06T19:49:11.049Z,5.07
2023-04-06T19:51:39.493Z,4.99
2023-04-06T19:54:07.971Z,4.89
2023-04-06T19:56:37.558Z,4.80
2023-04-06T19:59:05.943Z,4.72
2023-04-06T20:01:34.239Z,4.67
2023-04-06T20:04:02.558Z,4.58
2023-04-06T20:06:31.294Z,4.48
2023-04-06T20:08:59.453Z,4.39
2023-04-06T20:11:27.741Z,4.32
2023-04-06T20:13:57.409Z,4.28
2023-04-06T20:16:25.685Z,4.24
2023-04-06T20:18:53.771Z,4.20
2023-04-06T20:21:21.878Z,4.13
2023-04-06T20:23:50.054Z,4.09
2023-04-06T20:26:18.187Z,3.99
2023-04-06T20:28:46.466Z,3.92
2023-04-06T20:31:15.864Z,3.86
2023-04-06T20:33:44.033Z,3.78
2023-04-06T20:36:12.751Z,3.75
2023-04-06T20:38:41.007Z,3.75
2023-04-06T20:41:10.336Z,3.67
2023-04-06T20:43:38.546Z,3.61
2023-04-06T20:46:09.321Z,3.57
2023-04-06T20:48:39.114Z,3.42
2023-04-06T20:51:07.256Z,3.45
2023-04-06T20:53:35.783Z,3.40
2023-04-06T20:56:04.240Z,3.38
2023-04-06T20:58:32.515Z,3.33
2023-04-06T21:01:00.593Z,3.24
2023-04-06T21:03:28.954Z,3.20
2023-04-06T21:05:59.982Z,3.19
2023-04-06T21:08:28.193Z,3.20
2023-04-06T21:10:56.418Z,3.14
2023-04-06T21:13:24.705Z,3.09
2023-04-06T21:15:52.970Z,3.05
2023-04-06T21:18:22.227Z,3.04
2023-04-06T21:20:50.743Z,2.98
2023-04-06T21:23:20.446Z,2.95
2023-04-06T21:25:50.246Z,2.90
2023-04-06T21:28:18.465Z,2.82
2023-04-06T21:30:46.560Z,2.74
2023-04-06T21:33:14.805Z,2.76
2023-04-06T21:35:43.207Z,2.78
2023-04-06T21:38:11.628Z,2.74
2023-04-06T21:40:41.548Z,2.67
2023-04-06T21:43:09.762Z,2.64
2023-04-06T21:45:38.106Z,2.70
2023-04-06T21:48:07.116Z,2.64
2023-04-06T21:50:39.943Z,2.58
2023-04-06T21:53:08.075Z,2.56
2023-04-06T21:55:36.290Z,2.47
2023-04-06T21:58:07.422Z,2.49
2023-04-06T22:00:35.650Z,2.45
2023-04-06T22:03:03.929Z,2.39
2023-04-06T22:05:32.393Z,2.41
2023-04-06T22:08:02.144Z,2.41
2023-04-06T22:10:30.898Z,2.36
2023-04-06T22:12:59.031Z,2.23
2023-04-06T22:15:28.572Z,2.19
2023-04-06T22:17:56.862Z,2.16
2023-04-06T22:20:25.018Z,2.20
2023-04-06T22:22:53.184Z,2.20
2023-04-06T22:25:21.416Z,2.00
2023-04-06T22:27:50.931Z,1.98
2023-04-06T22:30:19.179Z,1.93
2023-04-06T22:32:48.723Z,1.92
2023-04-06T22:35:17.109Z,1.91
2023-04-06T22:37:45.544Z,1.81
2023-04-06T22:40:14.277Z,1.82
2023-04-06T22:42:42.544Z,1.80
2023-04-06T22:45:11.379Z,1.89
2023-04-06T22:47:41.725Z,1.76
2023-04-06T22:50:12.228Z,1.84
2023-04-06T22:52:40.396Z,1.86
2023-04-06T22:55:09.042Z,1.79
2023-04-06T22:57:37.117Z,1.70
2023-04-06T23:00:06.484Z,1.69
2023-04-06T23:02:34.897Z,1.72
2023-04-06T23:05:03.209Z,1.67
2023-04-06T23:07:33.367Z,1.69
2023-04-06T23:10:01.637Z,1.55
2023-04-06T23:12:29.820Z,1.52
2023-04-06T23:14:57.963Z,1.62
2023-04-06T23:17:26.211Z,1.59
2023-04-06T23:19:54.728Z,1.52
2023-04-06T23:22:22.972Z,1.54
2023-04-06T23:24:52.436Z,1.48
2023-04-06T23:27:20.582Z,1.34
2023-04-06T23:29:48.826Z,1.21
2023-04-06T23:32:17.561Z,1.14
2023-04-06T23:34:45.754Z,1.04
2023-04-06T23:37:13.873Z,1.15
2023-04-06T23:39:42.905Z,1.20
2023-04-06T23:42:12.390Z,1.15
2023-04-06T23:44:40.562Z,1.22
2023-04-06T23:47:08.751Z,1.18
2023-04-06T23:49:36.856Z,1.11
2023-04-06T23:52:05.075Z,1.08
2023-04-06T23:54:33.163Z,1.00
2023-04-06T23:57:01.436Z,0.91
2023-04-06T23:59:30.844Z,0.98
